Archival Weather

Abadan

Abadan, Iran (OIAA)

Report from: Tuesday, July 19, 2022 5:00 PM UTC
Current time: Tuesday, July 16, 2024 8:34 AM UTC

Current weather – Weather history – Daily summaries
Weather forecast

Temperature42.0°C (107.6°F)
Heat index40.2°C (104.3°F)
Dew point9.0°C (48.2°F)
Winds 4 kts (2.1 m/s, 4.6 mph) Northwest (310°)
Clouds Sky clear
Altimeter29.38 in.Hg (995 mB)
Relative humidity14 %
Density altitude3,797 ft. (1,157 m)
Remarks Ceiling and visibility OK
Flight conditions Visual Meteorological Conditions
Raw dataOIAA 191700Z 31004KT CAVOK 42/09 Q0995
An error has occurred. This application may no longer respond until reloaded. Reload 🗙